sensor_id;sensor_type;location;lat;lon;timestamp;P1;durP1;ratioP1;P2;durP2;ratioP2
3613;SDS011;1821;50.936;6.854;2023-12-20T00:00:30;10.40;;;9.30;;
3613;SDS011;1821;50.936;6.854;2023-12-20T00:01:12;10.57;;;9.48;;
3613;SDS011;1821;50.936;6.854;2023-12-20T00:01:54;9.98;;;8.98;;
3613;SDS011;1821;50.936;6.854;2023-12-20T00:02:36;10.07;;;9.07;;
3613;SDS011;1821;50.936;6.854;2023-12-20T00:03:18;9.70;;;8.70;;
3613;SDS011;1821;50.936;6.854;2023-12-20T00:04:00;9.80;;;8.60;;
3613;SDS011;1821;50.936;6.854;2023-12-20T00:04:43;10.68;;;8.63;;
3613;SDS011;1821;50.936;6.854;2023-12-20T00:05:25;10.10;;;8.60;;
3613;SDS011;1821;50.936;6.854;2023-12-20T00:06:07;9.05;;;8.10;;
3613;SDS011;1821;50.936;6.854;2023-12-20T00:06:49;10.50;;;8.52;;
3613;SDS011;1821;50.936;6.854;2023-12-20T00:07:31;9.95;;;8.95;;
3613;SDS011;1821;50.936;6.854;2023-12-20T00:08:13;9.82;;;8.82;;
3613;SDS011;1821;50.936;6.854;2023-12-20T00:08:55;10.63;;;9.52;;
3613;SDS011;1821;50.936;6.854;2023-12-20T00:09:39;10.50;;;9.40;;
3613;SDS011;1821;50.936;6.854;2023-12-20T00:10:21;9.75;;;8.85;;
3613;SDS011;1821;50.936;6.854;2023-12-20T00:11:02;9.73;;;8.73;;
3613;SDS011;1821;50.936;6.854;2023-12-20T00:11:44;9.00;;;8.10;;
3613;SDS011;1821;50.936;6.854;2023-12-20T00:12:27;9.65;;;8.65;;
3613;SDS011;1821;50.936;6.854;2023-12-20T00:13:10;9.52;;;8.60;;
3613;SDS011;1821;50.936;6.854;2023-12-20T00:13:52;11.13;;;9.43;;
3613;SDS011;1821;50.936;6.854;2023-12-20T00:14:34;10.55;;;9.45;;
3613;SDS011;1821;50.936;6.854;2023-12-20T00:15:16;9.75;;;8.75;;
3613;SDS011;1821;50.936;6.854;2023-12-20T00:15:57;9.07;;;8.18;;
3613;SDS011;1821;50.936;6.854;2023-12-20T00:16:39;9.45;;;8.48;;
3613;SDS011;1821;50.936;6.854;2023-12-20T00:17:21;10.15;;;9.07;;
3613;SDS011;1821;50.936;6.854;2023-12-20T00:18:03;10.70;;;9.38;;
3613;SDS011;1821;50.936;6.854;2023-12-20T00:18:45;10.65;;;8.80;;
3613;SDS011;1821;50.936;6.854;2023-12-20T00:19:27;9.20;;;8.20;;
3613;SDS011;1821;50.936;6.854;2023-12-20T00:20:10;9.50;;;8.48;;
3613;SDS011;1821;50.936;6.854;2023-12-20T00:20:52;8.90;;;8.00;;
3613;SDS011;1821;50.936;6.854;2023-12-20T00:21:34;9.65;;;8.65;;
3613;SDS011;1821;50.936;6.854;2023-12-20T00:22:16;8.73;;;7.82;;
3613;SDS011;1821;50.936;6.854;2023-12-20T00:22:58;9.07;;;8.07;;
3613;SDS011;1821;50.936;6.854;2023-12-20T00:23:40;8.68;;;7.78;;
3613;SDS011;1821;50.936;6.854;2023-12-20T00:24:22;8.65;;;7.82;;
3613;SDS011;1821;50.936;6.854;2023-12-20T00:25:04;8.50;;;7.57;;
3613;SDS011;1821;50.936;6.854;2023-12-20T00:25:46;8.70;;;7.78;;
3613;SDS011;1821;50.936;6.854;2023-12-20T00:26:28;9.07;;;8.18;;
3613;SDS011;1821;50.936;6.854;2023-12-20T00:27:10;9.63;;;8.18;;
3613;SDS011;1821;50.936;6.854;2023-12-20T00:27:52;9.43;;;7.68;;
3613;SDS011;1821;50.936;6.854;2023-12-20T00:28:37;8.68;;;7.75;;
3613;SDS011;1821;50.936;6.854;2023-12-20T00:29:19;8.40;;;7.50;;
3613;SDS011;1821;50.936;6.854;2023-12-20T00:30:01;8.50;;;7.28;;
3613;SDS011;1821;50.936;6.854;2023-12-20T00:30:43;8.27;;;6.95;;
3613;SDS011;1821;50.936;6.854;2023-12-20T00:31:25;7.10;;;6.40;;
3613;SDS011;1821;50.936;6.854;2023-12-20T00:32:07;6.82;;;6.13;;
3613;SDS011;1821;50.936;6.854;2023-12-20T00:32:49;7.25;;;6.20;;
3613;SDS011;1821;50.936;6.854;2023-12-20T00:33:31;7.22;;;6.00;;
3613;SDS011;1821;50.936;6.854;2023-12-20T00:34:14;6.75;;;5.72;;
3613;SDS011;1821;50.936;6.854;2023-12-20T00:34:56;8.02;;;5.95;;
3613;SDS011;1821;50.936;6.854;2023-12-20T00:35:38;7.22;;;6.22;;
3613;SDS011;1821;50.936;6.854;2023-12-20T00:36:19;7.53;;;6.72;;
3613;SDS011;1821;50.936;6.854;2023-12-20T00:37:01;7.53;;;6.78;;
3613;SDS011;1821;50.936;6.854;2023-12-20T00:37:43;9.10;;;7.40;;
3613;SDS011;1821;50.936;6.854;2023-12-20T00:38:28;8.60;;;6.43;;
3613;SDS011;1821;50.936;6.854;2023-12-20T00:39:10;7.38;;;6.50;;
3613;SDS011;1821;50.936;6.854;2023-12-20T00:39:52;7.63;;;6.45;;
3613;SDS011;1821;50.936;6.854;2023-12-20T00:40:34;9.07;;;6.97;;
3613;SDS011;1821;50.936;6.854;2023-12-20T00:41:17;9.38;;;6.88;;
3613;SDS011;1821;50.936;6.854;2023-12-20T00:41:58;7.70;;;6.85;;
3613;SDS011;1821;50.936;6.854;2023-12-20T00:42:41;8.45;;;6.65;;
3613;SDS011;1821;50.936;6.854;2023-12-20T00:43:23;8.18;;;6.60;;
3613;SDS011;1821;50.936;6.854;2023-12-20T00:44:04;7.75;;;6.80;;
3613;SDS011;1821;50.936;6.854;2023-12-20T00:44:46;9.00;;;7.30;;
3613;SDS011;1821;50.936;6.854;2023-12-20T00:45:28;9.35;;;6.95;;
3613;SDS011;1821;50.936;6.854;2023-12-20T00:46:16;8.53;;;6.90;;
3613;SDS011;1821;50.936;6.854;2023-12-20T00:46:57;9.20;;;6.90;;
3613;SDS011;1821;50.936;6.854;2023-12-20T00:47:40;8.43;;;6.72;;
3613;SDS011;1821;50.936;6.854;2023-12-20T00:48:22;10.00;;;7.88;;
3613;SDS011;1821;50.936;6.854;2023-12-20T00:49:04;8.23;;;7.22;;
3613;SDS011;1821;50.936;6.854;2023-12-20T00:49:46;8.68;;;7.28;;
3613;SDS011;1821;50.936;6.854;2023-12-20T00:50:28;9.52;;;7.95;;
3613;SDS011;1821;50.936;6.854;2023-12-20T00:51:11;9.57;;;7.50;;
3613;SDS011;1821;50.936;6.854;2023-12-20T00:51:53;9.85;;;7.78;;
3613;SDS011;1821;50.936;6.854;2023-12-20T00:52:35;8.52;;;7.45;;
3613;SDS011;1821;50.936;6.854;2023-12-20T00:53:16;9.07;;;7.22;;
3613;SDS011;1821;50.936;6.854;2023-12-20T00:54:01;8.95;;;7.20;;
3613;SDS011;1821;50.936;6.854;2023-12-20T00:54:43;11.40;;;8.25;;
3613;SDS011;1821;50.936;6.854;2023-12-20T00:55:26;11.70;;;7.78;;
3613;SDS011;1821;50.936;6.854;2023-12-20T00:56:08;9.18;;;6.78;;
3613;SDS011;1821;50.936;6.854;2023-12-20T00:56:50;10.40;;;7.78;;
3613;SDS011;1821;50.936;6.854;2023-12-20T00:57:32;10.43;;;7.53;;
3613;SDS011;1821;50.936;6.854;2023-12-20T00:58:14;9.90;;;7.60;;
3613;SDS011;1821;50.936;6.854;2023-12-20T00:58:56;9.75;;;8.20;;
3613;SDS011;1821;50.936;6.854;2023-12-20T00:59:38;8.65;;;7.43;;
3613;SDS011;1821;50.936;6.854;2023-12-20T01:00:20;8.68;;;6.78;;
3613;SDS011;1821;50.936;6.854;2023-12-20T01:01:03;10.77;;;7.32;;
3613;SDS011;1821;50.936;6.854;2023-12-20T01:01:44;8.60;;;6.78;;
3613;SDS011;1821;50.936;6.854;2023-12-20T01:02:26;9.45;;;7.30;;
3613;SDS011;1821;50.936;6.854;2023-12-20T01:03:09;11.70;;;7.55;;
3613;SDS011;1821;50.936;6.854;2023-12-20T01:03:50;10.25;;;7.65;;
3613;SDS011;1821;50.936;6.854;2023-12-20T01:04:33;10.80;;;7.95;;
3613;SDS011;1821;50.936;6.854;2023-12-20T01:05:15;10.10;;;7.30;;
3613;SDS011;1821;50.936;6.854;2023-12-20T01:05:57;10.43;;;7.63;;
3613;SDS011;1821;50.936;6.854;2023-12-20T01:06:39;10.27;;;7.85;;
3613;SDS011;1821;50.936;6.854;2023-12-20T01:07:21;10.55;;;7.85;;
3613;SDS011;1821;50.936;6.854;2023-12-20T01:08:03;10.23;;;7.47;;
3613;SDS011;1821;50.936;6.854;2023-12-20T01:08:46;10.40;;;6.85;;
3613;SDS011;1821;50.936;6.854;2023-12-20T01:09:30;8.35;;;7.00;;
3613;SDS011;1821;50.936;6.854;2023-12-20T01:10:12;9.73;;;7.22;;
3613;SDS011;1821;50.936;6.854;2023-12-20T01:10:54;10.13;;;7.53;;
3613;SDS011;1821;50.936;6.854;2023-12-20T01:11:36;9.00;;;7.07;;
3613;SDS011;1821;50.936;6.854;2023-12-20T01:12:18;10.57;;;7.53;;
3613;SDS011;1821;50.936;6.854;2023-12-20T01:13:01;10.63;;;7.55;;
3613;SDS011;1821;50.936;6.854;2023-12-20T01:13:46;10.15;;;7.32;;
3613;SDS011;1821;50.936;6.854;2023-12-20T01:14:28;10.20;;;6.85;;
3613;SDS011;1821;50.936;6.854;2023-12-20T01:15:09;12.27;;;7.55;;
3613;SDS011;1821;50.936;6.854;2023-12-20T01:15:51;11.35;;;7.57;;
3613;SDS011;1821;50.936;6.854;2023-12-20T01:16:33;12.10;;;7.43;;
3613;SDS011;1821;50.936;6.854;2023-12-20T01:17:15;12.30;;;7.30;;
3613;SDS011;1821;50.936;6.854;2023-12-20T01:18:00;10.30;;;7.65;;
3613;SDS011;1821;50.936;6.854;2023-12-20T01:18:42;10.25;;;7.82;;
3613;SDS011;1821;50.936;6.854;2023-12-20T01:19:24;9.30;;;6.70;;
3613;SDS011;1821;50.936;6.854;2023-12-20T01:20:08;11.15;;;7.20;;
3613;SDS011;1821;50.936;6.854;2023-12-20T01:20:52;11.57;;;7.18;;
3613;SDS011;1821;50.936;6.854;2023-12-20T01:21:34;10.00;;;6.63;;
3613;SDS011;1821;50.936;6.854;2023-12-20T01:22:16;9.88;;;6.72;;
3613;SDS011;1821;50.936;6.854;2023-12-20T01:22:58;9.98;;;7.15;;
3613;SDS011;1821;50.936;6.854;2023-12-20T01:23:40;8.93;;;6.90;;
3613;SDS011;1821;50.936;6.854;2023-12-20T01:24:23;11.93;;;7.68;;
3613;SDS011;1821;50.936;6.854;2023-12-20T01:25:04;14.18;;;7.68;;
3613;SDS011;1821;50.936;6.854;2023-12-20T01:25:47;12.35;;;7.18;;
3613;SDS011;1821;50.936;6.854;2023-12-20T01:26:29;11.05;;;7.70;;
3613;SDS011;1821;50.936;6.854;2023-12-20T01:27:11;11.80;;;7.70;;
3613;SDS011;1821;50.936;6.854;2023-12-20T01:27:53;11.77;;;7.30;;
3613;SDS011;1821;50.936;6.854;2023-12-20T01:28:35;10.18;;;7.50;;
3613;SDS011;1821;50.936;6.854;2023-12-20T01:29:17;12.48;;;8.52;;
3613;SDS011;1821;50.936;6.854;2023-12-20T01:29:59;13.68;;;9.25;;
3613;SDS011;1821;50.936;6.854;2023-12-20T01:30:41;14.80;;;9.75;;
3613;SDS011;1821;50.936;6.854;2023-12-20T01:31:23;14.38;;;10.13;;
3613;SDS011;1821;50.936;6.854;2023-12-20T01:32:05;14.30;;;10.75;;
3613;SDS011;1821;50.936;6.854;2023-12-20T01:32:47;16.60;;;9.90;;
3613;SDS011;1821;50.936;6.854;2023-12-20T01:33:29;16.88;;;10.32;;
3613;SDS011;1821;50.936;6.854;2023-12-20T01:34:11;15.02;;;10.55;;
3613;SDS011;1821;50.936;6.854;2023-12-20T01:34:53;15.13;;;10.20;;
3613;SDS011;1821;50.936;6.854;2023-12-20T01:35:40;13.23;;;9.85;;
3613;SDS011;1821;50.936;6.854;2023-12-20T01:36:22;13.75;;;10.40;;
3613;SDS011;1821;50.936;6.854;2023-12-20T01:37:04;13.93;;;10.40;;
3613;SDS011;1821;50.936;6.854;2023-12-20T01:37:46;13.80;;;11.40;;
3613;SDS011;1821;50.936;6.854;2023-12-20T01:38:28;13.48;;;11.07;;
3613;SDS011;1821;50.936;6.854;2023-12-20T01:39:13;16.20;;;11.55;;
3613;SDS011;1821;50.936;6.854;2023-12-20T01:40:08;17.60;;;11.60;;
3613;SDS011;1821;50.936;6.854;2023-12-20T01:40:51;16.55;;;11.98;;
3613;SDS011;1821;50.936;6.854;2023-12-20T01:41:33;14.23;;;11.38;;
3613;SDS011;1821;50.936;6.854;2023-12-20T01:42:15;14.63;;;11.25;;
3613;SDS011;1821;50.936;6.854;2023-12-20T01:43:00;14.10;;;10.70;;
3613;SDS011;1821;50.936;6.854;2023-12-20T01:43:44;15.98;;;10.90;;
3613;SDS011;1821;50.936;6.854;2023-12-20T01:44:32;16.40;;;10.98;;
3613;SDS011;1821;50.936;6.854;2023-12-20T01:45:14;13.90;;;11.20;;
3613;SDS011;1821;50.936;6.854;2023-12-20T01:45:57;14.27;;;11.40;;
3613;SDS011;1821;50.936;6.854;2023-12-20T01:46:41;13.40;;;11.35;;
3613;SDS011;1821;50.936;6.854;2023-12-20T01:47:23;14.73;;;11.15;;
3613;SDS011;1821;50.936;6.854;2023-12-20T01:48:06;15.65;;;12.00;;
3613;SDS011;1821;50.936;6.854;2023-12-20T01:48:51;16.63;;;12.35;;
3613;SDS011;1821;50.936;6.854;2023-12-20T01:49:34;15.18;;;11.95;;
3613;SDS011;1821;50.936;6.854;2023-12-20T01:50:17;18.10;;;12.05;;
3613;SDS011;1821;50.936;6.854;2023-12-20T01:50:59;16.95;;;11.95;;
3613;SDS011;1821;50.936;6.854;2023-12-20T01:51:42;15.98;;;11.25;;
3613;SDS011;1821;50.936;6.854;2023-12-20T01:52:24;16.80;;;11.30;;
3613;SDS011;1821;50.936;6.854;2023-12-20T01:53:07;15.02;;;11.10;;
3613;SDS011;1821;50.936;6.854;2023-12-20T01:53:51;13.55;;;10.77;;
3613;SDS011;1821;50.936;6.854;2023-12-20T01:54:35;14.55;;;10.60;;
3613;SDS011;1821;50.936;6.854;2023-12-20T01:55:19;14.05;;;10.50;;
3613;SDS011;1821;50.936;6.854;2023-12-20T01:56:01;12.60;;;9.43;;
3613;SDS011;1821;50.936;6.854;2023-12-20T01:56:43;15.50;;;9.30;;
3613;SDS011;1821;50.936;6.854;2023-12-20T01:57:27;12.30;;;8.50;;
3613;SDS011;1821;50.936;6.854;2023-12-20T01:58:09;12.20;;;8.10;;
3613;SDS011;1821;50.936;6.854;2023-12-20T01:58:54;11.07;;;7.70;;
3613;SDS011;1821;50.936;6.854;2023-12-20T01:59:37;10.13;;;7.35;;
3613;SDS011;1821;50.936;6.854;2023-12-20T02:00:21;13.80;;;7.57;;
3613;SDS011;1821;50.936;6.854;2023-12-20T02:01:08;11.77;;;7.75;;
3613;SDS011;1821;50.936;6.854;2023-12-20T02:01:50;12.05;;;7.30;;
3613;SDS011;1821;50.936;6.854;2023-12-20T02:02:33;14.43;;;7.90;;
3613;SDS011;1821;50.936;6.854;2023-12-20T02:03:15;10.23;;;7.75;;
3613;SDS011;1821;50.936;6.854;2023-12-20T02:03:59;15.55;;;8.05;;
3613;SDS011;1821;50.936;6.854;2023-12-20T02:04:42;13.13;;;7.70;;
3613;SDS011;1821;50.936;6.854;2023-12-20T02:05:24;11.88;;;8.00;;
3613;SDS011;1821;50.936;6.854;2023-12-20T02:06:07;11.70;;;7.80;;
3613;SDS011;1821;50.936;6.854;2023-12-20T02:06:53;12.95;;;7.55;;
3613;SDS011;1821;50.936;6.854;2023-12-20T02:07:37;13.23;;;6.68;;
3613;SDS011;1821;50.936;6.854;2023-12-20T02:08:19;13.52;;;7.20;;
3613;SDS011;1821;50.936;6.854;2023-12-20T02:09:03;12.15;;;7.32;;
3613;SDS011;1821;50.936;6.854;2023-12-20T02:09:46;11.98;;;7.07;;
3613;SDS011;1821;50.936;6.854;2023-12-20T02:10:28;18.20;;;7.70;;
3613;SDS011;1821;50.936;6.854;2023-12-20T02:11:10;11.88;;;6.55;;
3613;SDS011;1821;50.936;6.854;2023-12-20T02:11:52;10.90;;;6.63;;
3613;SDS011;1821;50.936;6.854;2023-12-20T02:12:35;12.57;;;7.10;;
3613;SDS011;1821;50.936;6.854;2023-12-20T02:13:17;11.85;;;6.80;;
3613;SDS011;1821;50.936;6.854;2023-12-20T02:13:59;13.45;;;7.30;;
3613;SDS011;1821;50.936;6.854;2023-12-20T02:14:41;11.55;;;6.45;;
3613;SDS011;1821;50.936;6.854;2023-12-20T02:15:23;10.63;;;6.70;;
3613;SDS011;1821;50.936;6.854;2023-12-20T02:16:05;11.40;;;6.82;;
3613;SDS011;1821;50.936;6.854;2023-12-20T02:16:49;13.90;;;7.50;;
3613;SDS011;1821;50.936;6.854;2023-12-20T02:17:31;11.43;;;6.97;;
3613;SDS011;1821;50.936;6.854;2023-12-20T02:18:14;12.27;;;6.85;;
3613;SDS011;1821;50.936;6.854;2023-12-20T02:18:58;10.30;;;6.90;;
3613;SDS011;1821;50.936;6.854;2023-12-20T02:19:40;12.32;;;7.68;;
3613;SDS011;1821;50.936;6.854;2023-12-20T02:20:22;14.65;;;7.03;;
3613;SDS011;1821;50.936;6.854;2023-12-20T02:21:05;13.65;;;5.85;;
3613;SDS011;1821;50.936;6.854;2023-12-20T02:21:47;14.70;;;7.10;;
3613;SDS011;1821;50.936;6.854;2023-12-20T02:22:29;12.63;;;7.03;;
3613;SDS011;1821;50.936;6.854;2023-12-20T02:23:11;12.00;;;6.75;;
3613;SDS011;1821;50.936;6.854;2023-12-20T02:23:53;11.82;;;6.70;;
3613;SDS011;1821;50.936;6.854;2023-12-20T02:24:36;10.10;;;5.72;;
3613;SDS011;1821;50.936;6.854;2023-12-20T02:25:18;14.85;;;6.25;;
3613;SDS011;1821;50.936;6.854;2023-12-20T02:26:01;12.30;;;6.20;;
3613;SDS011;1821;50.936;6.854;2023-12-20T02:26:44;11.20;;;6.32;;
3613;SDS011;1821;50.936;6.854;2023-12-20T02:27:28;12.70;;;6.82;;
3613;SDS011;1821;50.936;6.854;2023-12-20T02:28:11;12.50;;;5.80;;
3613;SDS011;1821;50.936;6.854;2023-12-20T02:28:53;11.82;;;5.60;;
3613;SDS011;1821;50.936;6.854;2023-12-20T02:29:39;13.75;;;5.60;;
3613;SDS011;1821;50.936;6.854;2023-12-20T02:30:21;12.30;;;5.85;;
3613;SDS011;1821;50.936;6.854;2023-12-20T02:31:03;12.50;;;5.38;;
3613;SDS011;1821;50.936;6.854;2023-12-20T02:31:45;13.45;;;5.00;;
3613;SDS011;1821;50.936;6.854;2023-12-20T02:32:27;19.08;;;5.80;;
3613;SDS011;1821;50.936;6.854;2023-12-20T02:33:10;15.25;;;5.25;;
3613;SDS011;1821;50.936;6.854;2023-12-20T02:33:56;11.50;;;5.05;;
3613;SDS011;1821;50.936;6.854;2023-12-20T02:34:38;11.27;;;5.20;;
3613;SDS011;1821;50.936;6.854;2023-12-20T02:35:20;13.60;;;4.78;;
3613;SDS011;1821;50.936;6.854;2023-12-20T02:36:06;11.18;;;4.50;;
3613;SDS011;1821;50.936;6.854;2023-12-20T02:36:48;12.00;;;4.50;;
3613;SDS011;1821;50.936;6.854;2023-12-20T02:37:30;10.80;;;4.40;;
3613;SDS011;1821;50.936;6.854;2023-12-20T02:38:12;12.55;;;4.88;;
3613;SDS011;1821;50.936;6.854;2023-12-20T02:38:54;11.70;;;4.50;;
3613;SDS011;1821;50.936;6.854;2023-12-20T02:39:36;9.52;;;4.40;;
3613;SDS011;1821;50.936;6.854;2023-12-20T02:40:21;17.48;;;4.47;;
3613;SDS011;1821;50.936;6.854;2023-12-20T02:41:03;18.05;;;4.68;;
3613;SDS011;1821;50.936;6.854;2023-12-20T02:41:45;14.52;;;4.38;;
3613;SDS011;1821;50.936;6.854;2023-12-20T02:42:26;13.13;;;4.20;;
3613;SDS011;1821;50.936;6.854;2023-12-20T02:43:09;11.02;;;4.22;;
3613;SDS011;1821;50.936;6.854;2023-12-20T02:43:50;11.00;;;4.47;;
3613;SDS011;1821;50.936;6.854;2023-12-20T02:44:33;9.80;;;3.80;;
3613;SDS011;1821;50.936;6.854;2023-12-20T02:45:15;8.25;;;4.22;;
3613;SDS011;1821;50.936;6.854;2023-12-20T02:45:57;9.65;;;3.95;;
3613;SDS011;1821;50.936;6.854;2023-12-20T02:46:39;12.18;;;4.38;;
3613;SDS011;1821;50.936;6.854;2023-12-20T02:47:24;7.70;;;3.90;;
3613;SDS011;1821;50.936;6.854;2023-12-20T02:48:06;10.00;;;3.90;;
3613;SDS011;1821;50.936;6.854;2023-12-20T02:48:48;10.68;;;4.25;;
3613;SDS011;1821;50.936;6.854;2023-12-20T02:49:31;10.27;;;3.90;;
3613;SDS011;1821;50.936;6.854;2023-12-20T02:50:13;10.85;;;3.92;;
3613;SDS011;1821;50.936;6.854;2023-12-20T02:50:55;11.07;;;3.90;;
3613;SDS011;1821;50.936;6.854;2023-12-20T02:51:37;10.65;;;4.10;;
3613;SDS011;1821;50.936;6.854;2023-12-20T02:52:20;8.20;;;3.90;;
3613;SDS011;1821;50.936;6.854;2023-12-20T02:53:03;9.27;;;4.10;;
3613;SDS011;1821;50.936;6.854;2023-12-20T02:53:45;13.07;;;5.00;;
3613;SDS011;1821;50.936;6.854;2023-12-20T02:54:26;15.00;;;4.57;;
3613;SDS011;1821;50.936;6.854;2023-12-20T02:55:08;7.57;;;3.80;;
3613;SDS011;1821;50.936;6.854;2023-12-20T02:55:53;13.07;;;4.13;;
3613;SDS011;1821;50.936;6.854;2023-12-20T02:56:35;13.05;;;4.32;;
3613;SDS011;1821;50.936;6.854;2023-12-20T02:57:17;12.02;;;4.20;;
3613;SDS011;1821;50.936;6.854;2023-12-20T02:57:59;9.65;;;3.70;;
3613;SDS011;1821;50.936;6.854;2023-12-20T02:58:41;8.70;;;4.03;;
3613;SDS011;1821;50.936;6.854;2023-12-20T02:59:23;13.15;;;4.13;;
3613;SDS011;1821;50.936;6.854;2023-12-20T03:00:05;13.30;;;4.25;;
3613;SDS011;1821;50.936;6.854;2023-12-20T03:00:47;10.13;;;3.90;;
3613;SDS011;1821;50.936;6.854;2023-12-20T03:01:29;7.85;;;3.42;;
3613;SDS011;1821;50.936;6.854;2023-12-20T03:02:11;8.20;;;4.07;;
3613;SDS011;1821;50.936;6.854;2023-12-20T03:02:53;11.63;;;4.38;;
3613;SDS011;1821;50.936;6.854;2023-12-20T03:03:35;11.52;;;4.18;;
3613;SDS011;1821;50.936;6.854;2023-12-20T03:04:17;11.48;;;3.70;;
3613;SDS011;1821;50.936;6.854;2023-12-20T03:05:00;10.27;;;4.70;;
3613;SDS011;1821;50.936;6.854;2023-12-20T03:05:42;11.07;;;4.55;;
3613;SDS011;1821;50.936;6.854;2023-12-20T03:06:24;11.77;;;4.15;;
3613;SDS011;1821;50.936;6.854;2023-12-20T03:07:07;13.55;;;4.40;;
3613;SDS011;1821;50.936;6.854;2023-12-20T03:07:49;15.25;;;4.65;;
3613;SDS011;1821;50.936;6.854;2023-12-20T03:08:31;12.30;;;4.32;;
3613;SDS011;1821;50.936;6.854;2023-12-20T03:09:13;9.40;;;4.40;;
3613;SDS011;1821;50.936;6.854;2023-12-20T03:09:55;9.90;;;4.10;;
3613;SDS011;1821;50.936;6.854;2023-12-20T03:10:55;10.50;;;3.50;;
3613;SDS011;1821;50.936;6.854;2023-12-20T03:11:38;8.63;;;3.30;;
3613;SDS011;1821;50.936;6.854;2023-12-20T03:12:20;8.07;;;3.47;;
3613;SDS011;1821;50.936;6.854;2023-12-20T03:13:02;12.00;;;3.20;;
3613;SDS011;1821;50.936;6.854;2023-12-20T03:13:43;11.48;;;3.10;;
3613;SDS011;1821;50.936;6.854;2023-12-20T03:14:26;8.23;;;3.10;;
3613;SDS011;1821;50.936;6.854;2023-12-20T03:15:08;10.02;;;3.42;;
3613;SDS011;1821;50.936;6.854;2023-12-20T03:15:50;10.90;;;4.05;;
3613;SDS011;1821;50.936;6.854;2023-12-20T03:16:32;12.02;;;3.03;;
3613;SDS011;1821;50.936;6.854;2023-12-20T03:17:19;11.73;;;3.70;;
3613;SDS011;1821;50.936;6.854;2023-12-20T03:18:02;9.07;;;4.03;;
3613;SDS011;1821;50.936;6.854;2023-12-20T03:18:44;12.30;;;4.00;;
3613;SDS011;1821;50.936;6.854;2023-12-20T03:19:26;12.90;;;3.97;;
3613;SDS011;1821;50.936;6.854;2023-12-20T03:20:08;11.40;;;3.83;;
3613;SDS011;1821;50.936;6.854;2023-12-20T03:20:51;9.48;;;3.60;;
3613;SDS011;1821;50.936;6.854;2023-12-20T03:21:33;9.13;;;3.00;;
3613;SDS011;1821;50.936;6.854;2023-12-20T03:22:15;10.80;;;3.00;;
3613;SDS011;1821;50.936;6.854;2023-12-20T03:22:57;12.73;;;3.55;;
3613;SDS011;1821;50.936;6.854;2023-12-20T03:23:39;7.93;;;3.30;;
3613;SDS011;1821;50.936;6.854;2023-12-20T03:24:21;7.38;;;3.50;;
3613;SDS011;1821;50.936;6.854;2023-12-20T03:25:04;8.20;;;3.55;;
3613;SDS011;1821;50.936;6.854;2023-12-20T03:25:46;8.15;;;3.60;;
3613;SDS011;1821;50.936;6.854;2023-12-20T03:26:28;11.07;;;3.83;;
3613;SDS011;1821;50.936;6.854;2023-12-20T03:27:10;11.93;;;3.80;;
3613;SDS011;1821;50.936;6.854;2023-12-20T03:27:52;11.50;;;4.10;;
3613;SDS011;1821;50.936;6.854;2023-12-20T03:28:35;11.73;;;4.03;;
3613;SDS011;1821;50.936;6.854;2023-12-20T03:29:18;9.90;;;3.85;;
3613;SDS011;1821;50.936;6.854;2023-12-20T03:30:00;11.98;;;3.22;;
3613;SDS011;1821;50.936;6.854;2023-12-20T03:30:42;14.20;;;3.40;;
3613;SDS011;1821;50.936;6.854;2023-12-20T03:31:24;12.50;;;3.90;;
3613;SDS011;1821;50.936;6.854;2023-12-20T03:32:06;12.70;;;3.88;;
3613;SDS011;1821;50.936;6.854;2023-12-20T03:32:49;11.52;;;4.05;;
3613;SDS011;1821;50.936;6.854;2023-12-20T03:33:32;9.55;;;3.50;;
3613;SDS011;1821;50.936;6.854;2023-12-20T03:34:16;9.32;;;3.50;;
3613;SDS011;1821;50.936;6.854;2023-12-20T03:34:59;10.02;;;3.80;;
3613;SDS011;1821;50.936;6.854;2023-12-20T03:35:41;10.07;;;3.60;;
3613;SDS011;1821;50.936;6.854;2023-12-20T03:36:23;9.93;;;3.40;;
3613;SDS011;1821;50.936;6.854;2023-12-20T03:37:05;11.60;;;4.30;;
3613;SDS011;1821;50.936;6.854;2023-12-20T03:37:47;11.90;;;4.30;;
3613;SDS011;1821;50.936;6.854;2023-12-20T03:38:31;9.70;;;3.45;;
3613;SDS011;1821;50.936;6.854;2023-12-20T03:39:14;11.43;;;3.45;;
3613;SDS011;1821;50.936;6.854;2023-12-20T03:39:55;13.82;;;4.18;;
3613;SDS011;1821;50.936;6.854;2023-12-20T03:40:37;11.48;;;3.70;;
3613;SDS011;1821;50.936;6.854;2023-12-20T03:41:20;10.68;;;4.00;;
3613;SDS011;1821;50.936;6.854;2023-12-20T03:42:05;11.68;;;4.05;;
3613;SDS011;1821;50.936;6.854;2023-12-20T03:42:48;16.30;;;4.20;;
3613;SDS011;1821;50.936;6.854;2023-12-20T03:43:29;14.70;;;3.50;;
3613;SDS011;1821;50.936;6.854;2023-12-20T03:44:11;11.60;;;3.70;;
3613;SDS011;1821;50.936;6.854;2023-12-20T03:44:54;8.85;;;3.80;;
3613;SDS011;1821;50.936;6.854;2023-12-20T03:45:36;10.95;;;3.80;;
3613;SDS011;1821;50.936;6.854;2023-12-20T03:46:17;10.95;;;4.35;;
3613;SDS011;1821;50.936;6.854;2023-12-20T03:47:00;15.07;;;4.30;;
3613;SDS011;1821;50.936;6.854;2023-12-20T03:47:44;11.77;;;3.75;;
3613;SDS011;1821;50.936;6.854;2023-12-20T03:48:30;12.30;;;3.95;;
3613;SDS011;1821;50.936;6.854;2023-12-20T03:49:15;9.50;;;3.78;;
3613;SDS011;1821;50.936;6.854;2023-12-20T03:49:57;10.48;;;4.18;;
3613;SDS011;1821;50.936;6.854;2023-12-20T03:50:39;14.20;;;4.40;;
3613;SDS011;1821;50.936;6.854;2023-12-20T03:51:21;17.35;;;4.57;;
3613;SDS011;1821;50.936;6.854;2023-12-20T03:52:04;15.20;;;4.45;;
3613;SDS011;1821;50.936;6.854;2023-12-20T03:52:47;11.70;;;3.70;;
3613;SDS011;1821;50.936;6.854;2023-12-20T03:53:29;12.10;;;3.97;;
3613;SDS011;1821;50.936;6.854;2023-12-20T03:54:10;9.43;;;3.72;;
3613;SDS011;1821;50.936;6.854;2023-12-20T03:54:52;9.82;;;3.97;;
3613;SDS011;1821;50.936;6.854;2023-12-20T03:55:35;7.82;;;3.60;;
3613;SDS011;1821;50.936;6.854;2023-12-20T03:56:17;9.00;;;3.67;;
3613;SDS011;1821;50.936;6.854;2023-12-20T03:57:00;12.23;;;4.47;;
3613;SDS011;1821;50.936;6.854;2023-12-20T03:57:43;11.25;;;4.20;;
3613;SDS011;1821;50.936;6.854;2023-12-20T03:58:25;13.30;;;4.47;;
3613;SDS011;1821;50.936;6.854;2023-12-20T03:59:07;13.05;;;4.82;;
3613;SDS011;1821;50.936;6.854;2023-12-20T03:59:50;11.00;;;4.40;;
3613;SDS011;1821;50.936;6.854;2023-12-20T04:00:32;14.07;;;4.20;;
3613;SDS011;1821;50.936;6.854;2023-12-20T04:01:14;11.38;;;3.70;;
3613;SDS011;1821;50.936;6.854;2023-12-20T04:01:56;9.18;;;4.28;;
3613;SDS011;1821;50.936;6.854;2023-12-20T04:02:38;10.13;;;4.05;;
3613;SDS011;1821;50.936;6.854;2023-12-20T04:03:23;10.43;;;3.88;;
3613;SDS011;1821;50.936;6.854;2023-12-20T04:04:05;9.60;;;3.85;;
3613;SDS011;1821;50.936;6.854;2023-12-20T04:04:48;7.50;;;3.40;;
3613;SDS011;1821;50.936;6.854;2023-12-20T04:05:30;10.20;;;3.60;;
3613;SDS011;1821;50.936;6.854;2023-12-20T04:06:18;13.43;;;4.88;;
3613;SDS011;1821;50.936;6.854;2023-12-20T04:07:01;13.02;;;4.90;;
3613;SDS011;1821;50.936;6.854;2023-12-20T04:07:42;14.15;;;4.55;;
3613;SDS011;1821;50.936;6.854;2023-12-20T04:08:25;14.52;;;4.25;;
3613;SDS011;1821;50.936;6.854;2023-12-20T04:09:07;13.98;;;3.78;;
3613;SDS011;1821;50.936;6.854;2023-12-20T04:09:53;16.67;;;4.20;;
3613;SDS011;1821;50.936;6.854;2023-12-20T04:10:35;10.80;;;3.60;;
3613;SDS011;1821;50.936;6.854;2023-12-20T04:11:19;12.05;;;3.90;;
3613;SDS011;1821;50.936;6.854;2023-12-20T04:12:00;13.05;;;4.68;;
3613;SDS011;1821;50.936;6.854;2023-12-20T04:12:42;16.77;;;4.70;;
3613;SDS011;1821;50.936;6.854;2023-12-20T04:13:26;15.57;;;4.53;;
3613;SDS011;1821;50.936;6.854;2023-12-20T04:14:08;15.07;;;5.10;;
3613;SDS011;1821;50.936;6.854;2023-12-20T04:14:51;13.63;;;4.72;;
3613;SDS011;1821;50.936;6.854;2023-12-20T04:15:33;10.07;;;3.78;;
3613;SDS011;1821;50.936;6.854;2023-12-20T04:16:15;10.43;;;3.83;;
3613;SDS011;1821;50.936;6.854;2023-12-20T04:16:58;10.43;;;4.13;;
3613;SDS011;1821;50.936;6.854;2023-12-20T04:17:40;12.50;;;4.90;;
3613;SDS011;1821;50.936;6.854;2023-12-20T04:18:22;12.80;;;4.35;;
3613;SDS011;1821;50.936;6.854;2023-12-20T04:19:04;10.32;;;3.72;;
3613;SDS011;1821;50.936;6.854;2023-12-20T04:19:46;10.37;;;4.23;;
3613;SDS011;1821;50.936;6.854;2023-12-20T04:20:29;14.27;;;4.88;;
3613;SDS011;1821;50.936;6.854;2023-12-20T04:21:11;12.90;;;3.90;;
3613;SDS011;1821;50.936;6.854;2023-12-20T04:21:55;13.18;;;4.22;;